TimeCDT,TemperatureF,Dew PointF,Humidity,Sea Level PressureIn,VisibilityMPH,Wind Direction,Wind SpeedMPH,Gust SpeedMPH,PrecipitationIn,Events,Conditions,WindDirDegrees,DateUTC
12:56 AM,36.0,24.1,62,30.06,10.0,WSW,9.2,-,N/A,,Clear,250,2014-03-13 05:56:00
1:56 AM,33.1,24.1,70,30.05,10.0,WSW,3.5,-,N/A,,Clear,240,2014-03-13 06:56:00
2:56 AM,33.1,23.0,66,30.04,10.0,WSW,4.6,-,N/A,,Clear,250,2014-03-13 07:56:00
3:56 AM,28.9,23.0,78,30.03,10.0,Calm,Calm,-,N/A,,Clear,0,2014-03-13 08:56:00
4:56 AM,28.9,23.0,78,30.02,10.0,Calm,Calm,-,N/A,,Clear,0,2014-03-13 09:56:00
5:56 AM,28.9,21.9,75,30.01,10.0,Calm,Calm,-,N/A,,Clear,0,2014-03-13 10:56:00
6:56 AM,30.9,24.1,76,30.01,10.0,Calm,Calm,-,N/A,,Clear,0,2014-03-13 11:56:00
7:56 AM,30.0,24.1,79,30.01,10.0,Calm,Calm,-,N/A,,Clear,0,2014-03-13 12:56:00
8:56 AM,34.0,27.0,75,30.01,10.0,Calm,Calm,-,N/A,,Clear,0,2014-03-13 13:56:00
9:56 AM,42.1,28.9,60,29.99,10.0,Calm,Calm,-,N/A,,Clear,0,2014-03-13 14:56:00
10:56 AM,54.0,30.9,41,29.96,10.0,Variable,4.6,-,N/A,,Clear,0,2014-03-13 15:56:00
11:56 AM,57.9,26.1,30,29.92,10.0,WSW,18.4,-,N/A,,Clear,240,2014-03-13 16:56:00
12:56 PM,62.1,25.0,24,29.88,10.0,SSW,19.6,-,N/A,,Clear,210,2014-03-13 17:56:00
1:56 PM,64.9,23.0,20,29.84,10.0,SW,19.6,26.5,N/A,,Clear,220,2014-03-13 18:56:00
2:56 PM,66.0,19.9,17,29.78,10.0,WSW,15.0,31.1,N/A,,Clear,240,2014-03-13 19:56:00
3:56 PM,68.0,18.0,15,29.74,10.0,SW,21.9,31.1,N/A,,Clear,230,2014-03-13 20:56:00
4:56 PM,68.0,18.0,15,29.72,10.0,SW,26.5,32.2,N/A,,Clear,230,2014-03-13 21:56:00
5:56 PM,68.0,15.1,13,29.69,10.0,SW,20.7,27.6,N/A,,Clear,230,2014-03-13 22:56:00
6:56 PM,66.0,14.0,13,29.68,10.0,SW,18.4,-,N/A,,Clear,230,2014-03-13 23:56:00
7:56 PM,57.0,16.0,20,29.68,10.0,SSW,11.5,-,N/A,,Clear,200,2014-03-14 00:56:00
8:56 PM,54.0,17.1,23,29.67,10.0,South,15.0,-,N/A,,Clear,190,2014-03-14 01:56:00
9:56 PM,52.0,17.1,25,29.65,10.0,SSW,13.8,-,N/A,,Clear,200,2014-03-14 02:56:00
10:56 PM,50.0,15.1,25,29.63,10.0,SSW,17.3,-,N/A,,Clear,210,2014-03-14 03:56:00
11:56 PM,42.1,16.0,35,29.67,10.0,WSW,4.6,-,N/A,,Clear,240,2014-03-14 04:56:00